Главная страница
METAR-TAF:

METAR-TAF

Аэропорты :

Международный аэропорт имени Ференца Листа

Будапешт, Венгрия

широта: 47-26N, долгота: 019-16E, высота над уровнем моря: 151 м

Текущие метеонаблюдения

Эта сводка был подготовлена 38 минут назад, в 01:30 UTC
Ветер 2 Узел переменных направлений
Температура 7°C
Влажность 76%
Давление 1023 hPa
Видимость 10 км и более
Нет облачности ниже 1500 м, и нет кучево-дождевой облачности

METAR: LHBP 160130Z VRB02KT CAVOK 07/03 Q1023 NOSIG

Время: 04:08 (02:08 UTC)

Прогноз

Эта сводка был подготовлена 2 часа и 53 минут назад, в 23:15 UTC
Прогноз действительный с 16-го 00 UTC до 16-го 24 UTC
Ветер 3 Узел от восточный
Видимость 10 км и более
Нет облачности ниже 1500 м, и нет кучево-дождевой облачности
изменения
С 16-го 06 UTC до 16-го 08 UTC
Ветер 9 Узел от юго-восточный
изменения
С 16-го 15 UTC до 16-го 17 UTC
Ветер 5 Узел от восточный

TAF: LHBP 152315Z 1600/1624 08003KT CAVOK BECMG 1606/1608 14009KT BECMG 1615/1617 08005KT

Метеонаблюдения и прогнозы для более 4000 аэропортов (сводки METAR и TAF).

Имеющиеся станции представлены на карте желтыми и красными точками.

Чтобы увидеть название станции, наведите на нее мышь.

Затем щелкните, чтобы увидеть метеонаблюдения и метеопрогнозы.

Управление картой: чтобы увеличить масштаб, щелкните зеленые кнопки с черным крестиком; чтобы уменьшить масштаб, щелкните зеленую кнопку с тире; для просмотра соседних карт щелкайте зеленые стрелки.


METAR-TAF: